sensor_id;sensor_type;location;lat;lon;timestamp;P1;durP1;ratioP1;P2;durP2;ratioP2
58581;SDS011;44361;51.476;5.700;2023-02-01T00:00:15;25.55;;;5.95;;
58581;SDS011;44361;51.476;5.700;2023-02-01T00:02:41;21.50;;;5.80;;
58581;SDS011;44361;51.476;5.700;2023-02-01T00:05:08;17.02;;;4.93;;
58581;SDS011;44361;51.476;5.700;2023-02-01T00:07:34;27.10;;;5.68;;
58581;SDS011;44361;51.476;5.700;2023-02-01T00:10:00;21.52;;;5.50;;
58581;SDS011;44361;51.476;5.700;2023-02-01T00:12:26;20.20;;;5.43;;
58581;SDS011;44361;51.476;5.700;2023-02-01T00:14:52;21.33;;;4.85;;
58581;SDS011;44361;51.476;5.700;2023-02-01T00:17:17;22.17;;;4.72;;
58581;SDS011;44361;51.476;5.700;2023-02-01T00:19:43;16.77;;;4.50;;
58581;SDS011;44361;51.476;5.700;2023-02-01T00:22:08;15.00;;;4.65;;
58581;SDS011;44361;51.476;5.700;2023-02-01T00:24:34;25.40;;;5.05;;
58581;SDS011;44361;51.476;5.700;2023-02-01T00:26:59;22.67;;;3.97;;
58581;SDS011;44361;51.476;5.700;2023-02-01T00:29:25;17.45;;;3.75;;
58581;SDS011;44361;51.476;5.700;2023-02-01T00:31:51;14.73;;;3.92;;
58581;SDS011;44361;51.476;5.700;2023-02-01T00:34:17;15.95;;;3.92;;
58581;SDS011;44361;51.476;5.700;2023-02-01T00:36:43;28.70;;;4.38;;
58581;SDS011;44361;51.476;5.700;2023-02-01T00:39:10;25.13;;;4.25;;
58581;SDS011;44361;51.476;5.700;2023-02-01T00:41:36;21.80;;;3.45;;
58581;SDS011;44361;51.476;5.700;2023-02-01T00:44:02;19.23;;;4.40;;
58581;SDS011;44361;51.476;5.700;2023-02-01T00:46:28;20.13;;;3.58;;
58581;SDS011;44361;51.476;5.700;2023-02-01T00:48:54;17.90;;;3.30;;
58581;SDS011;44361;51.476;5.700;2023-02-01T00:51:21;18.83;;;4.20;;
58581;SDS011;44361;51.476;5.700;2023-02-01T00:53:48;16.42;;;3.00;;
58581;SDS011;44361;51.476;5.700;2023-02-01T00:56:14;24.95;;;3.72;;
58581;SDS011;44361;51.476;5.700;2023-02-01T00:58:40;23.40;;;4.28;;
58581;SDS011;44361;51.476;5.700;2023-02-01T01:01:09;32.35;;;3.55;;
58581;SDS011;44361;51.476;5.700;2023-02-01T01:03:36;14.75;;;3.08;;
58581;SDS011;44361;51.476;5.700;2023-02-01T01:06:05;13.02;;;2.95;;
58581;SDS011;44361;51.476;5.700;2023-02-01T01:08:32;17.85;;;2.92;;
58581;SDS011;44361;51.476;5.700;2023-02-01T01:10:58;21.75;;;3.55;;
58581;SDS011;44361;51.476;5.700;2023-02-01T01:13:23;23.92;;;3.15;;
58581;SDS011;44361;51.476;5.700;2023-02-01T01:15:49;18.73;;;3.00;;
58581;SDS011;44361;51.476;5.700;2023-02-01T01:18:15;20.50;;;3.17;;
58581;SDS011;44361;51.476;5.700;2023-02-01T01:20:40;10.60;;;2.53;;
58581;SDS011;44361;51.476;5.700;2023-02-01T01:23:07;23.08;;;3.35;;
58581;SDS011;44361;51.476;5.700;2023-02-01T01:25:36;18.02;;;3.03;;
58581;SDS011;44361;51.476;5.700;2023-02-01T01:28:03;18.55;;;2.50;;
58581;SDS011;44361;51.476;5.700;2023-02-01T01:30:29;13.80;;;2.65;;
58581;SDS011;44361;51.476;5.700;2023-02-01T01:32:54;18.90;;;3.22;;
58581;SDS011;44361;51.476;5.700;2023-02-01T01:35:20;21.33;;;3.00;;
58581;SDS011;44361;51.476;5.700;2023-02-01T01:37:45;19.25;;;3.15;;
58581;SDS011;44361;51.476;5.700;2023-02-01T01:40:11;21.55;;;4.13;;
58581;SDS011;44361;51.476;5.700;2023-02-01T01:42:40;13.30;;;3.45;;
58581;SDS011;44361;51.476;5.700;2023-02-01T01:47:50;16.83;;;3.65;;
58581;SDS011;44361;51.476;5.700;2023-02-01T01:50:23;25.10;;;3.42;;
58581;SDS011;44361;51.476;5.700;2023-02-01T01:53:10;15.60;;;2.90;;
58581;SDS011;44361;51.476;5.700;2023-02-01T01:55:38;18.60;;;3.45;;
58581;SDS011;44361;51.476;5.700;2023-02-01T01:58:09;20.42;;;2.80;;
58581;SDS011;44361;51.476;5.700;2023-02-01T02:00:39;24.58;;;4.07;;
58581;SDS011;44361;51.476;5.700;2023-02-01T02:03:18;20.67;;;3.38;;
58581;SDS011;44361;51.476;5.700;2023-02-01T02:05:47;20.75;;;3.75;;
58581;SDS011;44361;51.476;5.700;2023-02-01T02:08:15;27.27;;;3.72;;
58581;SDS011;44361;51.476;5.700;2023-02-01T02:10:45;14.52;;;3.63;;
58581;SDS011;44361;51.476;5.700;2023-02-01T02:13:32;22.70;;;3.25;;
58581;SDS011;44361;51.476;5.700;2023-02-01T02:22:10;15.85;;;3.25;;
58581;SDS011;44361;51.476;5.700;2023-02-01T02:28:13;19.45;;;4.38;;
58581;SDS011;44361;51.476;5.700;2023-02-01T02:31:12;17.38;;;3.90;;
58581;SDS011;44361;51.476;5.700;2023-02-01T02:33:53;29.45;;;3.42;;
58581;SDS011;44361;51.476;5.700;2023-02-01T02:42:41;12.68;;;3.05;;
58581;SDS011;44361;51.476;5.700;2023-02-01T02:48:47;22.70;;;3.83;;
58581;SDS011;44361;51.476;5.700;2023-02-01T02:51:25;23.85;;;4.18;;
58581;SDS011;44361;51.476;5.700;2023-02-01T02:54:21;21.08;;;3.80;;
58581;SDS011;44361;51.476;5.700;2023-02-01T02:57:09;17.48;;;3.35;;
58581;SDS011;44361;51.476;5.700;2023-02-01T03:00:04;18.17;;;3.47;;
58581;SDS011;44361;51.476;5.700;2023-02-01T03:02:52;16.40;;;3.47;;
58581;SDS011;44361;51.476;5.700;2023-02-01T03:05:39;28.10;;;4.40;;
58581;SDS011;44361;51.476;5.700;2023-02-01T03:08:18;22.50;;;3.92;;
58581;SDS011;44361;51.476;5.700;2023-02-01T03:10:50;26.98;;;4.43;;
58581;SDS011;44361;51.476;5.700;2023-02-01T03:13:51;26.10;;;4.25;;
58581;SDS011;44361;51.476;5.700;2023-02-01T03:21:38;21.92;;;3.35;;
58581;SDS011;44361;51.476;5.700;2023-02-01T03:27:24;24.23;;;3.63;;
58581;SDS011;44361;51.476;5.700;2023-02-01T03:29:59;24.80;;;3.83;;
58581;SDS011;44361;51.476;5.700;2023-02-01T03:32:30;22.67;;;3.88;;
58581;SDS011;44361;51.476;5.700;2023-02-01T03:35:16;17.73;;;3.28;;
58581;SDS011;44361;51.476;5.700;2023-02-01T03:37:45;22.83;;;3.08;;
58581;SDS011;44361;51.476;5.700;2023-02-01T03:40:12;22.17;;;4.15;;
58581;SDS011;44361;51.476;5.700;2023-02-01T03:42:43;19.48;;;3.60;;
58581;SDS011;44361;51.476;5.700;2023-02-01T03:45:27;22.52;;;4.03;;
58581;SDS011;44361;51.476;5.700;2023-02-01T03:47:59;25.40;;;3.63;;
58581;SDS011;44361;51.476;5.700;2023-02-01T03:50:26;22.25;;;3.63;;
58581;SDS011;44361;51.476;5.700;2023-02-01T03:53:07;21.48;;;3.60;;
58581;SDS011;44361;51.476;5.700;2023-02-01T03:55:35;28.63;;;3.78;;
58581;SDS011;44361;51.476;5.700;2023-02-01T03:58:12;22.13;;;3.40;;
58581;SDS011;44361;51.476;5.700;2023-02-01T04:00:42;28.02;;;4.57;;
58581;SDS011;44361;51.476;5.700;2023-02-01T04:03:10;28.27;;;3.75;;
58581;SDS011;44361;51.476;5.700;2023-02-01T04:05:36;29.58;;;3.90;;
58581;SDS011;44361;51.476;5.700;2023-02-01T04:08:01;29.05;;;4.15;;
58581;SDS011;44361;51.476;5.700;2023-02-01T04:10:27;20.95;;;4.05;;
58581;SDS011;44361;51.476;5.700;2023-02-01T04:12:53;24.55;;;3.63;;
58581;SDS011;44361;51.476;5.700;2023-02-01T04:15:18;19.10;;;3.72;;
58581;SDS011;44361;51.476;5.700;2023-02-01T04:17:44;21.95;;;3.70;;
58581;SDS011;44361;51.476;5.700;2023-02-01T04:20:10;22.45;;;3.80;;
58581;SDS011;44361;51.476;5.700;2023-02-01T04:22:36;16.92;;;3.38;;
58581;SDS011;44361;51.476;5.700;2023-02-01T04:25:01;22.75;;;3.50;;
58581;SDS011;44361;51.476;5.700;2023-02-01T04:27:27;26.90;;;3.72;;
58581;SDS011;44361;51.476;5.700;2023-02-01T04:29:53;26.15;;;3.50;;
58581;SDS011;44361;51.476;5.700;2023-02-01T04:32:18;16.10;;;3.13;;
58581;SDS011;44361;51.476;5.700;2023-02-01T04:34:44;24.25;;;3.60;;
58581;SDS011;44361;51.476;5.700;2023-02-01T04:37:10;20.20;;;3.55;;
58581;SDS011;44361;51.476;5.700;2023-02-01T04:39:36;23.33;;;3.05;;
58581;SDS011;44361;51.476;5.700;2023-02-01T04:42:01;27.45;;;3.28;;
58581;SDS011;44361;51.476;5.700;2023-02-01T04:44:27;24.40;;;3.50;;
58581;SDS011;44361;51.476;5.700;2023-02-01T04:46:53;20.60;;;3.05;;
58581;SDS011;44361;51.476;5.700;2023-02-01T04:49:18;21.42;;;3.55;;
58581;SDS011;44361;51.476;5.700;2023-02-01T04:51:46;24.25;;;3.33;;
58581;SDS011;44361;51.476;5.700;2023-02-01T04:54:11;27.08;;;3.50;;
58581;SDS011;44361;51.476;5.700;2023-02-01T04:56:37;24.67;;;3.67;;
58581;SDS011;44361;51.476;5.700;2023-02-01T04:59:03;29.83;;;3.83;;
58581;SDS011;44361;51.476;5.700;2023-02-01T05:01:29;25.77;;;3.55;;
58581;SDS011;44361;51.476;5.700;2023-02-01T05:03:55;23.65;;;3.42;;
58581;SDS011;44361;51.476;5.700;2023-02-01T05:06:21;21.85;;;3.55;;
58581;SDS011;44361;51.476;5.700;2023-02-01T05:08:47;26.05;;;3.63;;
58581;SDS011;44361;51.476;5.700;2023-02-01T05:11:13;29.42;;;3.80;;
58581;SDS011;44361;51.476;5.700;2023-02-01T05:14:02;19.08;;;3.22;;
58581;SDS011;44361;51.476;5.700;2023-02-01T05:16:27;25.52;;;3.85;;
58581;SDS011;44361;51.476;5.700;2023-02-01T05:18:53;23.73;;;3.70;;
58581;SDS011;44361;51.476;5.700;2023-02-01T05:21:19;29.65;;;3.90;;
58581;SDS011;44361;51.476;5.700;2023-02-01T05:23:44;36.10;;;4.45;;
58581;SDS011;44361;51.476;5.700;2023-02-01T05:26:29;23.38;;;3.78;;
58581;SDS011;44361;51.476;5.700;2023-02-01T05:28:54;27.52;;;3.78;;
58581;SDS011;44361;51.476;5.700;2023-02-01T05:31:20;26.85;;;3.85;;
58581;SDS011;44361;51.476;5.700;2023-02-01T05:33:46;20.52;;;4.30;;
58581;SDS011;44361;51.476;5.700;2023-02-01T05:36:12;32.67;;;4.32;;
58581;SDS011;44361;51.476;5.700;2023-02-01T05:38:38;20.38;;;3.70;;
58581;SDS011;44361;51.476;5.700;2023-02-01T05:41:03;16.48;;;3.05;;
58581;SDS011;44361;51.476;5.700;2023-02-01T05:43:29;27.50;;;4.32;;
58581;SDS011;44361;51.476;5.700;2023-02-01T05:45:55;24.58;;;2.97;;
58581;SDS011;44361;51.476;5.700;2023-02-01T05:48:20;25.35;;;4.05;;
58581;SDS011;44361;51.476;5.700;2023-02-01T05:50:46;26.35;;;3.63;;
58581;SDS011;44361;51.476;5.700;2023-02-01T05:53:12;18.45;;;3.60;;
58581;SDS011;44361;51.476;5.700;2023-02-01T05:55:37;23.98;;;3.70;;
58581;SDS011;44361;51.476;5.700;2023-02-01T05:58:04;20.98;;;3.65;;
58581;SDS011;44361;51.476;5.700;2023-02-01T06:00:30;19.55;;;3.63;;
58581;SDS011;44361;51.476;5.700;2023-02-01T06:02:56;20.10;;;3.33;;
58581;SDS011;44361;51.476;5.700;2023-02-01T06:05:21;30.20;;;4.22;;
58581;SDS011;44361;51.476;5.700;2023-02-01T06:07:47;30.65;;;3.67;;
58581;SDS011;44361;51.476;5.700;2023-02-01T06:10:14;22.85;;;3.63;;
58581;SDS011;44361;51.476;5.700;2023-02-01T06:12:41;27.45;;;4.13;;
58581;SDS011;44361;51.476;5.700;2023-02-01T06:15:07;22.00;;;4.25;;
58581;SDS011;44361;51.476;5.700;2023-02-01T06:17:33;24.63;;;3.97;;
58581;SDS011;44361;51.476;5.700;2023-02-01T06:19:58;27.35;;;4.05;;
58581;SDS011;44361;51.476;5.700;2023-02-01T06:22:24;30.63;;;4.47;;
58581;SDS011;44361;51.476;5.700;2023-02-01T06:24:50;17.23;;;4.35;;
58581;SDS011;44361;51.476;5.700;2023-02-01T06:27:15;18.60;;;4.45;;
58581;SDS011;44361;51.476;5.700;2023-02-01T06:29:41;28.73;;;4.10;;
58581;SDS011;44361;51.476;5.700;2023-02-01T06:32:06;23.98;;;3.78;;
58581;SDS011;44361;51.476;5.700;2023-02-01T06:34:32;27.77;;;3.85;;
58581;SDS011;44361;51.476;5.700;2023-02-01T06:36:57;20.42;;;3.42;;
58581;SDS011;44361;51.476;5.700;2023-02-01T06:39:23;31.92;;;4.32;;
58581;SDS011;44361;51.476;5.700;2023-02-01T06:41:48;32.75;;;3.90;;
58581;SDS011;44361;51.476;5.700;2023-02-01T06:44:15;29.98;;;4.88;;
58581;SDS011;44361;51.476;5.700;2023-02-01T06:46:41;15.20;;;4.20;;
58581;SDS011;44361;51.476;5.700;2023-02-01T06:49:07;23.83;;;3.47;;
58581;SDS011;44361;51.476;5.700;2023-02-01T06:51:33;27.95;;;4.53;;
58581;SDS011;44361;51.476;5.700;2023-02-01T06:53:58;26.40;;;4.30;;
58581;SDS011;44361;51.476;5.700;2023-02-01T06:56:25;22.05;;;3.90;;
58581;SDS011;44361;51.476;5.700;2023-02-01T06:58:50;32.85;;;5.82;;
58581;SDS011;44361;51.476;5.700;2023-02-01T07:01:16;31.77;;;4.78;;
58581;SDS011;44361;51.476;5.700;2023-02-01T07:03:42;21.30;;;4.03;;
58581;SDS011;44361;51.476;5.700;2023-02-01T07:06:11;36.05;;;4.28;;
58581;SDS011;44361;51.476;5.700;2023-02-01T07:08:37;29.60;;;4.68;;
58581;SDS011;44361;51.476;5.700;2023-02-01T07:11:03;23.88;;;4.70;;
58581;SDS011;44361;51.476;5.700;2023-02-01T07:13:33;32.70;;;4.85;;
58581;SDS011;44361;51.476;5.700;2023-02-01T07:16:00;26.92;;;4.05;;
58581;SDS011;44361;51.476;5.700;2023-02-01T07:18:30;38.72;;;4.65;;
58581;SDS011;44361;51.476;5.700;2023-02-01T07:20:56;24.60;;;4.05;;
58581;SDS011;44361;51.476;5.700;2023-02-01T07:23:22;39.50;;;4.85;;
58581;SDS011;44361;51.476;5.700;2023-02-01T07:25:48;19.92;;;3.97;;
58581;SDS011;44361;51.476;5.700;2023-02-01T07:28:14;25.00;;;3.40;;
58581;SDS011;44361;51.476;5.700;2023-02-01T07:30:39;26.38;;;4.97;;
58581;SDS011;44361;51.476;5.700;2023-02-01T07:33:06;29.67;;;4.95;;
58581;SDS011;44361;51.476;5.700;2023-02-01T07:35:32;28.20;;;4.63;;
58581;SDS011;44361;51.476;5.700;2023-02-01T07:37:57;24.23;;;4.00;;
58581;SDS011;44361;51.476;5.700;2023-02-01T07:40:24;24.85;;;4.20;;
58581;SDS011;44361;51.476;5.700;2023-02-01T07:42:56;26.38;;;4.18;;
58581;SDS011;44361;51.476;5.700;2023-02-01T07:45:21;29.80;;;4.22;;
58581;SDS011;44361;51.476;5.700;2023-02-01T07:47:48;25.40;;;4.30;;
58581;SDS011;44361;51.476;5.700;2023-02-01T07:50:14;20.63;;;4.03;;
58581;SDS011;44361;51.476;5.700;2023-02-01T07:52:40;17.35;;;4.50;;
58581;SDS011;44361;51.476;5.700;2023-02-01T07:55:06;21.17;;;4.43;;
58581;SDS011;44361;51.476;5.700;2023-02-01T07:57:32;32.88;;;5.05;;
58581;SDS011;44361;51.476;5.700;2023-02-01T07:59:57;27.98;;;4.38;;
58581;SDS011;44361;51.476;5.700;2023-02-01T08:02:41;25.20;;;4.70;;
58581;SDS011;44361;51.476;5.700;2023-02-01T08:05:07;20.77;;;3.65;;
58581;SDS011;44361;51.476;5.700;2023-02-01T08:07:33;31.50;;;4.13;;
58581;SDS011;44361;51.476;5.700;2023-02-01T08:09:58;21.35;;;4.25;;
58581;SDS011;44361;51.476;5.700;2023-02-01T08:12:24;25.00;;;3.63;;
58581;SDS011;44361;51.476;5.700;2023-02-01T08:14:51;27.48;;;3.92;;
58581;SDS011;44361;51.476;5.700;2023-02-01T08:17:18;25.85;;;4.35;;
58581;SDS011;44361;51.476;5.700;2023-02-01T08:19:44;32.20;;;4.57;;
58581;SDS011;44361;51.476;5.700;2023-02-01T08:22:09;28.77;;;4.68;;
58581;SDS011;44361;51.476;5.700;2023-02-01T08:24:35;27.27;;;4.95;;
58581;SDS011;44361;51.476;5.700;2023-02-01T08:27:02;20.15;;;3.20;;
58581;SDS011;44361;51.476;5.700;2023-02-01T08:29:28;29.75;;;4.95;;
58581;SDS011;44361;51.476;5.700;2023-02-01T08:31:54;22.50;;;4.63;;
58581;SDS011;44361;51.476;5.700;2023-02-01T08:34:19;24.02;;;4.68;;
58581;SDS011;44361;51.476;5.700;2023-02-01T08:36:45;21.55;;;4.05;;
58581;SDS011;44361;51.476;5.700;2023-02-01T08:39:11;17.50;;;3.05;;
58581;SDS011;44361;51.476;5.700;2023-02-01T08:41:37;26.02;;;3.92;;
58581;SDS011;44361;51.476;5.700;2023-02-01T08:44:03;20.67;;;3.65;;
58581;SDS011;44361;51.476;5.700;2023-02-01T08:46:28;20.35;;;3.42;;
58581;SDS011;44361;51.476;5.700;2023-02-01T08:48:54;20.73;;;3.97;;
58581;SDS011;44361;51.476;5.700;2023-02-01T08:51:20;23.88;;;3.70;;
58581;SDS011;44361;51.476;5.700;2023-02-01T08:53:48;19.55;;;3.22;;
58581;SDS011;44361;51.476;5.700;2023-02-01T08:56:14;22.77;;;3.28;;
58581;SDS011;44361;51.476;5.700;2023-02-01T08:58:41;23.33;;;3.33;;
58581;SDS011;44361;51.476;5.700;2023-02-01T09:01:07;21.75;;;3.50;;
58581;SDS011;44361;51.476;5.700;2023-02-01T09:03:34;21.10;;;3.42;;
58581;SDS011;44361;51.476;5.700;2023-02-01T09:06:00;23.70;;;3.25;;
58581;SDS011;44361;51.476;5.700;2023-02-01T09:08:30;22.30;;;3.67;;
58581;SDS011;44361;51.476;5.700;2023-02-01T09:11:04;24.20;;;4.30;;
58581;SDS011;44361;51.476;5.700;2023-02-01T09:13:31;21.02;;;3.72;;
58581;SDS011;44361;51.476;5.700;2023-02-01T09:15:58;27.55;;;3.63;;
58581;SDS011;44361;51.476;5.700;2023-02-01T09:18:24;24.23;;;4.10;;
58581;SDS011;44361;51.476;5.700;2023-02-01T09:20:50;25.55;;;3.88;;
58581;SDS011;44361;51.476;5.700;2023-02-01T09:23:16;23.27;;;3.50;;
58581;SDS011;44361;51.476;5.700;2023-02-01T09:25:42;27.92;;;4.00;;
58581;SDS011;44361;51.476;5.700;2023-02-01T09:28:07;20.52;;;2.92;;
58581;SDS011;44361;51.476;5.700;2023-02-01T09:30:34;24.10;;;3.65;;
58581;SDS011;44361;51.476;5.700;2023-02-01T09:33:00;27.30;;;3.50;;
58581;SDS011;44361;51.476;5.700;2023-02-01T09:35:26;21.48;;;3.55;;
58581;SDS011;44361;51.476;5.700;2023-02-01T09:37:52;27.58;;;3.70;;
58581;SDS011;44361;51.476;5.700;2023-02-01T09:40:18;17.10;;;3.35;;
58581;SDS011;44361;51.476;5.700;2023-02-01T09:45:29;34.42;;;4.82;;
58581;SDS011;44361;51.476;5.700;2023-02-01T09:48:13;18.92;;;3.50;;
58581;SDS011;44361;51.476;5.700;2023-02-01T09:50:43;16.38;;;2.92;;
58581;SDS011;44361;51.476;5.700;2023-02-01T09:53:18;23.42;;;3.45;;
58581;SDS011;44361;51.476;5.700;2023-02-01T09:55:53;15.63;;;2.45;;
58581;SDS011;44361;51.476;5.700;2023-02-01T10:00:59;22.27;;;3.15;;
58581;SDS011;44361;51.476;5.700;2023-02-01T10:03:27;17.85;;;3.40;;
58581;SDS011;44361;51.476;5.700;2023-02-01T10:09:07;19.65;;;4.13;;
58581;SDS011;44361;51.476;5.700;2023-02-01T10:20:23;20.92;;;3.30;;
58581;SDS011;44361;51.476;5.700;2023-02-01T10:26:25;26.00;;;4.00;;
58581;SDS011;44361;51.476;5.700;2023-02-01T10:28:41;22.83;;;3.65;;
58581;SDS011;44361;51.476;5.700;2023-02-01T10:31:09;24.95;;;3.28;;
58581;SDS011;44361;51.476;5.700;2023-02-01T10:33:37;19.52;;;2.80;;
58581;SDS011;44361;51.476;5.700;2023-02-01T10:38:42;18.20;;;2.75;;
58581;SDS011;44361;51.476;5.700;2023-02-01T10:41:12;19.50;;;3.20;;
58581;SDS011;44361;51.476;5.700;2023-02-01T10:43:40;14.77;;;2.35;;
58581;SDS011;44361;51.476;5.700;2023-02-01T10:46:07;18.17;;;2.58;;
58581;SDS011;44361;51.476;5.700;2023-02-01T10:48:33;20.42;;;3.55;;
58581;SDS011;44361;51.476;5.700;2023-02-01T10:51:00;16.58;;;2.83;;
58581;SDS011;44361;51.476;5.700;2023-02-01T10:53:46;20.77;;;2.42;;
58581;SDS011;44361;51.476;5.700;2023-02-01T10:56:24;16.92;;;3.13;;
58581;SDS011;44361;51.476;5.700;2023-02-01T10:58:52;22.58;;;2.78;;
58581;SDS011;44361;51.476;5.700;2023-02-01T11:01:31;13.75;;;2.40;;
58581;SDS011;44361;51.476;5.700;2023-02-01T11:04:01;21.85;;;3.10;;
58581;SDS011;44361;51.476;5.700;2023-02-01T11:11:33;13.10;;;2.47;;
58581;SDS011;44361;51.476;5.700;2023-02-01T11:14:19;16.38;;;2.33;;
58581;SDS011;44361;51.476;5.700;2023-02-01T11:17:01;16.63;;;2.78;;
58581;SDS011;44361;51.476;5.700;2023-02-01T11:22:01;19.77;;;2.55;;
58581;SDS011;44361;51.476;5.700;2023-02-01T11:24:31;16.65;;;2.05;;
58581;SDS011;44361;51.476;5.700;2023-02-01T11:27:00;19.23;;;2.53;;
58581;SDS011;44361;51.476;5.700;2023-02-01T11:29:29;21.55;;;3.15;;
58581;SDS011;44361;51.476;5.700;2023-02-01T11:32:01;18.48;;;2.88;;
58581;SDS011;44361;51.476;5.700;2023-02-01T11:34:36;14.02;;;2.30;;
58581;SDS011;44361;51.476;5.700;2023-02-01T11:37:04;19.98;;;2.60;;
58581;SDS011;44361;51.476;5.700;2023-02-01T11:39:41;19.20;;;2.60;;
58581;SDS011;44361;51.476;5.700;2023-02-01T11:42:16;14.23;;;2.35;;
58581;SDS011;44361;51.476;5.700;2023-02-01T11:44:43;10.32;;;2.33;;
58581;SDS011;44361;51.476;5.700;2023-02-01T11:49:45;20.85;;;2.75;;
58581;SDS011;44361;51.476;5.700;2023-02-01T11:52:22;13.65;;;2.50;;
58581;SDS011;44361;51.476;5.700;2023-02-01T12:08:53;15.63;;;2.45;;
58581;SDS011;44361;51.476;5.700;2023-02-01T12:22:28;14.65;;;2.70;;
58581;SDS011;44361;51.476;5.700;2023-02-01T12:36:19;16.95;;;2.78;;
58581;SDS011;44361;51.476;5.700;2023-02-01T12:39:05;15.10;;;1.75;;
58581;SDS011;44361;51.476;5.700;2023-02-01T12:47:14;25.15;;;2.83;;
58581;SDS011;44361;51.476;5.700;2023-02-01T12:50:01;17.90;;;2.17;;
58581;SDS011;44361;51.476;5.700;2023-02-01T12:52:42;17.50;;;1.85;;
58581;SDS011;44361;51.476;5.700;2023-02-01T12:55:24;12.57;;;2.15;;
58581;SDS011;44361;51.476;5.700;2023-02-01T12:58:03;13.60;;;2.15;;
58581;SDS011;44361;51.476;5.700;2023-02-01T13:00:49;12.98;;;2.53;;
58581;SDS011;44361;51.476;5.700;2023-02-01T13:03:41;16.13;;;2.30;;
58581;SDS011;44361;51.476;5.700;2023-02-01T13:06:19;14.00;;;2.53;;
58581;SDS011;44361;51.476;5.700;2023-02-01T13:08:53;12.60;;;1.90;;
58581;SDS011;44361;51.476;5.700;2023-02-01T13:11:30;18.95;;;2.80;;
58581;SDS011;44361;51.476;5.700;2023-02-01T13:16:43;17.75;;;2.75;;
58581;SDS011;44361;51.476;5.700;2023-02-01T13:19:17;17.45;;;2.65;;
58581;SDS011;44361;51.476;5.700;2023-02-01T13:21:53;21.35;;;2.47;;
58581;SDS011;44361;51.476;5.700;2023-02-01T13:27:04;21.08;;;2.95;;
58581;SDS011;44361;51.476;5.700;2023-02-01T13:29:30;14.00;;;2.10;;
58581;SDS011;44361;51.476;5.700;2023-02-01T13:32:11;15.43;;;2.35;;
58581;SDS011;44361;51.476;5.700;2023-02-01T13:34:51;21.45;;;2.97;;
58581;SDS011;44361;51.476;5.700;2023-02-01T13:37:47;13.10;;;2.13;;
58581;SDS011;44361;51.476;5.700;2023-02-01T13:40:35;16.42;;;2.92;;
58581;SDS011;44361;51.476;5.700;2023-02-01T13:43:22;18.48;;;2.90;;
58581;SDS011;44361;51.476;5.700;2023-02-01T13:45:52;16.73;;;1.92;;
58581;SDS011;44361;51.476;5.700;2023-02-01T13:48:26;13.00;;;2.50;;
58581;SDS011;44361;51.476;5.700;2023-02-01T13:51:01;18.67;;;2.53;;
58581;SDS011;44361;51.476;5.700;2023-02-01T13:55:56;19.65;;;2.95;;
58581;SDS011;44361;51.476;5.700;2023-02-01T13:58:35;19.27;;;3.25;;
58581;SDS011;44361;51.476;5.700;2023-02-01T14:03:48;21.27;;;3.13;;
58581;SDS011;44361;51.476;5.700;2023-02-01T14:09:14;12.75;;;2.20;;
58581;SDS011;44361;51.476;5.700;2023-02-01T14:11:50;19.15;;;4.07;;
58581;SDS011;44361;51.476;5.700;2023-02-01T14:16:44;15.63;;;2.08;;
58581;SDS011;44361;51.476;5.700;2023-02-01T14:19:35;16.98;;;3.20;;
58581;SDS011;44361;51.476;5.700;2023-02-01T14:22:31;19.33;;;2.58;;
58581;SDS011;44361;51.476;5.700;2023-02-01T14:24:55;17.58;;;2.47;;
58581;SDS011;44361;51.476;5.700;2023-02-01T14:27:26;14.60;;;2.30;;
58581;SDS011;44361;51.476;5.700;2023-02-01T14:29:56;17.92;;;2.97;;
58581;SDS011;44361;51.476;5.700;2023-02-01T14:32:31;19.70;;;2.38;;
58581;SDS011;44361;51.476;5.700;2023-02-01T14:35:06;11.30;;;2.60;;
58581;SDS011;44361;51.476;5.700;2023-02-01T14:37:43;20.42;;;2.38;;
58581;SDS011;44361;51.476;5.700;2023-02-01T14:53:13;13.93;;;2.63;;
58581;SDS011;44361;51.476;5.700;2023-02-01T14:55:51;14.60;;;2.13;;
58581;SDS011;44361;51.476;5.700;2023-02-01T15:01:35;16.45;;;2.58;;
58581;SDS011;44361;51.476;5.700;2023-02-01T15:04:04;19.15;;;3.08;;
58581;SDS011;44361;51.476;5.700;2023-02-01T15:06:33;21.80;;;2.85;;
58581;SDS011;44361;51.476;5.700;2023-02-01T15:09:48;15.23;;;2.85;;
58581;SDS011;44361;51.476;5.700;2023-02-01T15:14:38;19.48;;;2.53;;
58581;SDS011;44361;51.476;5.700;2023-02-01T15:17:19;19.23;;;2.45;;
58581;SDS011;44361;51.476;5.700;2023-02-01T15:20:03;14.35;;;2.95;;
58581;SDS011;44361;51.476;5.700;2023-02-01T15:22:40;15.13;;;2.30;;
58581;SDS011;44361;51.476;5.700;2023-02-01T15:25:28;18.60;;;2.83;;
58581;SDS011;44361;51.476;5.700;2023-02-01T15:27:54;19.40;;;3.20;;
58581;SDS011;44361;51.476;5.700;2023-02-01T15:30:25;15.73;;;2.92;;
58581;SDS011;44361;51.476;5.700;2023-02-01T15:33:03;11.90;;;1.88;;
58581;SDS011;44361;51.476;5.700;2023-02-01T15:35:44;16.40;;;2.17;;
58581;SDS011;44361;51.476;5.700;2023-02-01T15:38:41;16.42;;;2.40;;
58581;SDS011;44361;51.476;5.700;2023-02-01T15:46:21;19.80;;;2.63;;
58581;SDS011;44361;51.476;5.700;2023-02-01T15:48:55;16.40;;;2.95;;
58581;SDS011;44361;51.476;5.700;2023-02-01T15:51:22;15.40;;;2.78;;
58581;SDS011;44361;51.476;5.700;2023-02-01T15:53:58;16.17;;;2.40;;
58581;SDS011;44361;51.476;5.700;2023-02-01T15:56:29;17.52;;;2.55;;
58581;SDS011;44361;51.476;5.700;2023-02-01T15:59:03;17.60;;;2.40;;
58581;SDS011;44361;51.476;5.700;2023-02-01T16:01:37;18.45;;;3.08;;
58581;SDS011;44361;51.476;5.700;2023-02-01T16:06:59;18.08;;;2.80;;
58581;SDS011;44361;51.476;5.700;2023-02-01T16:09:35;14.18;;;2.65;;
58581;SDS011;44361;51.476;5.700;2023-02-01T16:15:00;25.60;;;3.03;;
58581;SDS011;44361;51.476;5.700;2023-02-01T16:17:25;18.02;;;2.42;;
58581;SDS011;44361;51.476;5.700;2023-02-01T16:19:51;15.98;;;3.08;;
58581;SDS011;44361;51.476;5.700;2023-02-01T16:22:17;20.40;;;2.78;;
58581;SDS011;44361;51.476;5.700;2023-02-01T16:24:42;14.45;;;2.33;;
58581;SDS011;44361;51.476;5.700;2023-02-01T16:27:08;18.33;;;3.05;;
58581;SDS011;44361;51.476;5.700;2023-02-01T16:29:33;19.65;;;2.88;;
58581;SDS011;44361;51.476;5.700;2023-02-01T16:31:59;19.55;;;3.35;;
58581;SDS011;44361;51.476;5.700;2023-02-01T16:34:25;20.05;;;2.95;;
58581;SDS011;44361;51.476;5.700;2023-02-01T16:36:50;18.60;;;3.33;;
58581;SDS011;44361;51.476;5.700;2023-02-01T16:39:17;15.80;;;2.90;;
58581;SDS011;44361;51.476;5.700;2023-02-01T16:41:44;20.33;;;3.53;;
58581;SDS011;44361;51.476;5.700;2023-02-01T16:44:12;23.83;;;3.25;;
58581;SDS011;44361;51.476;5.700;2023-02-01T16:46:39;24.40;;;3.42;;
58581;SDS011;44361;51.476;5.700;2023-02-01T16:49:15;21.27;;;3.00;;
58581;SDS011;44361;51.476;5.700;2023-02-01T16:51:43;23.05;;;3.97;;
58581;SDS011;44361;51.476;5.700;2023-02-01T16:54:09;20.25;;;4.03;;
58581;SDS011;44361;51.476;5.700;2023-02-01T16:56:35;23.73;;;2.70;;
58581;SDS011;44361;51.476;5.700;2023-02-01T16:59:01;24.23;;;3.15;;
58581;SDS011;44361;51.476;5.700;2023-02-01T17:01:27;21.58;;;2.72;;
58581;SDS011;44361;51.476;5.700;2023-02-01T17:03:53;27.17;;;3.08;;
58581;SDS011;44361;51.476;5.700;2023-02-01T17:06:19;18.63;;;3.67;;
58581;SDS011;44361;51.476;5.700;2023-02-01T17:08:51;19.05;;;3.40;;
58581;SDS011;44361;51.476;5.700;2023-02-01T17:11:19;20.58;;;3.05;;
58581;SDS011;44361;51.476;5.700;2023-02-01T17:13:44;16.25;;;2.58;;
58581;SDS011;44361;51.476;5.700;2023-02-01T17:18:43;21.42;;;3.25;;
58581;SDS011;44361;51.476;5.700;2023-02-01T17:21:11;22.67;;;3.40;;
58581;SDS011;44361;51.476;5.700;2023-02-01T17:23:37;16.40;;;2.88;;